Weather at Mudgee Airport

Public forecast

Using degrees Celsius for public forecast. Weather courtesy of forecast.io.

Current aviation weather report (METAR) for Mudgee Airport

Retrieved 2022/01/27 07:00 UTC (34 minutes ago):

YMDG 270700Z AUTO 06007KT 9999 // BKN044 26/18 Q1013

Closest aviation forecast (TAF) to Mudgee Airport

Forecast is more than 12 hours old.

Closest forecast is Dubbo City Regional Airport, 56.5 nm (104.6 km) WNW. Retrieved 2022/01/26 12:37 UTC (19 hours ago):

TAF YSDU 261036Z 2612/2706 07010KT 9999 SCT050 FM261500 08010KT 9999 -SHRA BKN030